Time;durP1;ratioP1;P1;durP2;ratioP2;P2;SDS_P1;SDS_P2;PMS_P1;PMS_P2;Temp;Humidity;BMP_temperature;BMP_pressure;BME280_temperature;BME280_humidity;BME280_pressure;Samples;Min_cycle;Max_cycle;Signal;HPM_P1;HPM_P2
2023/02/07 06:41:31;;;;;;;47.97;21.48;;;;;;;;;;5431021;24;20054;-59
2023/02/07 06:43:57;;;;;;;37.40;18.05;;;;;;;;;;4786372;29;20092;-64
2023/02/07 06:46:23;;;;;;;41.60;19.25;;;;;;;;;;4783048;30;20056;-58
2023/02/07 06:48:49;;;;;;;36.25;18.75;;;;;;;;;;4776778;30;20039;-64
2023/02/07 06:51:15;;;;;;;43.17;19.83;;;;;;;;;;4777118;30;20043;-59
2023/02/07 06:53:41;;;;;;;37.42;18.15;;;;;;;;;;4775083;30;20035;-61
2023/02/07 06:56:07;;;;;;;34.25;17.27;;;;;;;;;;4777434;30;20039;-59
2023/02/07 06:58:33;;;;;;;35.75;17.58;;;;;;;;;;4776106;30;20114;-60
2023/02/07 07:01:03;;;;;;;34.40;17.30;;;;;;;;;;4776926;30;20039;-60
2023/02/07 07:03:29;;;;;;;37.15;17.40;;;;;;;;;;4776266;30;20027;-60
2023/02/07 07:05:59;;;;;;;36.47;16.73;;;;;;;;;;4775612;30;20040;-60
2023/02/07 07:08:25;;;;;;;35.53;16.38;;;;;;;;;;4775637;30;20031;-67
2023/02/07 07:10:51;;;;;;;37.40;17.15;;;;;;;;;;4776487;30;20031;-69
2023/02/07 07:13:17;;;;;;;37.30;18.20;;;;;;;;;;4777019;30;20043;-67
2023/02/07 07:15:44;;;;;;;39.80;18.30;;;;;;;;;;4775234;30;20481;-59
2023/02/07 07:18:10;;;;;;;37.22;17.60;;;;;;;;;;4775833;29;20019;-60
2023/02/07 07:20:36;;;;;;;38.25;17.75;;;;;;;;;;4776794;30;20484;-59
2023/02/07 07:23:02;;;;;;;38.25;17.73;;;;;;;;;;4774981;30;20024;-60
2023/02/07 07:25:28;;;;;;;36.10;17.77;;;;;;;;;;4776063;30;20039;-59
2023/02/07 07:27:54;;;;;;;38.53;19.00;;;;;;;;;;4776492;30;20115;-61
2023/02/07 07:30:20;;;;;;;35.95;17.75;;;;;;;;;;4774944;30;20024;-61
2023/02/07 07:32:46;;;;;;;41.50;19.58;;;;;;;;;;4776743;30;20039;-70
2023/02/07 07:35:12;;;;;;;42.85;21.65;;;;;;;;;;4770378;30;20122;-63
2023/02/07 07:37:40;;;;;;;45.22;21.45;;;;;;;;;;4775601;30;20019;-66
2023/02/07 07:40:07;;;;;;;39.17;18.83;;;;;;;;;;4777416;30;20042;-68
2023/02/07 07:42:34;;;;;;;41.10;19.83;;;;;;;;;;4776540;29;20059;-63
2023/02/07 07:45:00;;;;;;;38.42;19.88;;;;;;;;;;4759320;30;20127;-69
2023/02/07 07:47:27;;;;;;;41.65;20.73;;;;;;;;;;4756558;30;20506;-69
2023/02/07 07:49:53;;;;;;;45.45;21.42;;;;;;;;;;4762772;30;20489;-69
2023/02/07 07:52:19;;;;;;;42.55;20.73;;;;;;;;;;4768073;30;20497;-59
2023/02/07 07:54:45;;;;;;;37.33;19.60;;;;;;;;;;4767801;30;20433;-60
2023/02/07 07:57:12;;;;;;;43.58;20.27;;;;;;;;;;4768016;30;20390;-59
2023/02/07 07:59:38;;;;;;;39.67;19.63;;;;;;;;;;4767817;30;20501;-61
2023/02/07 08:02:04;;;;;;;38.10;19.88;;;;;;;;;;4767802;30;20039;-70
2023/02/07 08:04:30;;;;;;;42.72;20.60;;;;;;;;;;4764206;30;20036;-58
2023/02/07 08:06:56;;;;;;;37.97;20.58;;;;;;;;;;4767887;30;20139;-70
2023/02/07 08:09:22;;;;;;;41.67;20.35;;;;;;;;;;4766310;30;20040;-59
2023/02/07 08:11:48;;;;;;;41.22;20.55;;;;;;;;;;4756537;30;20044;-58
2023/02/07 08:14:14;;;;;;;43.45;20.23;;;;;;;;;;4758081;30;20370;-59
2023/02/07 08:16:40;;;;;;;46.80;20.10;;;;;;;;;;4756757;30;20070;-58
2023/02/07 08:19:06;;;;;;;38.10;19.45;;;;;;;;;;4749741;30;20032;-58
2023/02/07 08:21:32;;;;;;;37.88;19.60;;;;;;;;;;4749864;30;20754;-59
2023/02/07 08:23:58;;;;;;;40.25;20.42;;;;;;;;;;4766126;30;20065;-67
2023/02/07 08:26:24;;;;;;;39.40;19.73;;;;;;;;;;4763863;30;20070;-62
2023/02/07 08:28:51;;;;;;;50.53;22.40;;;;;;;;;;4758031;30;20545;-59
2023/02/07 08:31:17;;;;;;;48.35;22.25;;;;;;;;;;4758463;30;20051;-59
2023/02/07 08:33:43;;;;;;;40.92;20.55;;;;;;;;;;4761806;30;20032;-59
2023/02/07 08:36:10;;;;;;;44.10;20.92;;;;;;;;;;4760785;30;20036;-58
2023/02/07 08:38:36;;;;;;;39.53;20.73;;;;;;;;;;4771021;30;20050;-62
2023/02/07 08:41:03;;;;;;;40.47;20.00;;;;;;;;;;4770685;30;20027;-59
2023/02/07 08:43:29;;;;;;;45.00;21.65;;;;;;;;;;4770583;30;20059;-58
2023/02/07 08:45:55;;;;;;;48.50;21.33;;;;;;;;;;4770538;30;20075;-63
2023/02/07 08:48:21;;;;;;;49.20;22.95;;;;;;;;;;4770845;30;20034;-58
2023/02/07 08:50:47;;;;;;;43.78;21.10;;;;;;;;;;4770342;30;20040;-57
2023/02/07 08:53:13;;;;;;;42.17;21.80;;;;;;;;;;4759258;30;20024;-57
2023/02/07 08:55:40;;;;;;;40.35;19.95;;;;;;;;;;4762174;30;20035;-61
2023/02/07 08:58:06;;;;;;;39.42;20.05;;;;;;;;;;4759043;30;20390;-57
2023/02/07 09:00:34;;;;;;;38.55;19.65;;;;;;;;;;4752655;30;20111;-60
2023/02/07 09:03:00;;;;;;;40.38;20.80;;;;;;;;;;4752857;30;20032;-60
2023/02/07 09:05:26;;;;;;;42.40;21.02;;;;;;;;;;4753925;30;20044;-60
2023/02/07 09:07:52;;;;;;;38.42;20.15;;;;;;;;;;4762282;30;20193;-60
2023/02/07 09:10:18;;;;;;;45.47;22.90;;;;;;;;;;4754976;30;20119;-59
2023/02/07 09:12:44;;;;;;;47.72;21.92;;;;;;;;;;4758827;30;20039;-59
2023/02/07 09:15:10;;;;;;;44.75;21.45;;;;;;;;;;4760013;30;20147;-59
2023/02/07 09:17:36;;;;;;;42.05;20.33;;;;;;;;;;4753232;30;20091;-59
2023/02/07 09:20:03;;;;;;;42.35;20.42;;;;;;;;;;4752127;30;20036;-60
2023/02/07 09:22:30;;;;;;;40.72;20.17;;;;;;;;;;4752294;30;20145;-58
2023/02/07 09:24:56;;;;;;;42.13;20.90;;;;;;;;;;4750869;30;20421;-59
2023/02/07 09:27:22;;;;;;;40.03;20.23;;;;;;;;;;4752279;30;20043;-58
2023/02/07 09:29:48;;;;;;;38.40;19.45;;;;;;;;;;4751871;30;20064;-70
2023/02/07 09:32:14;;;;;;;40.53;20.88;;;;;;;;;;4752391;30;20460;-70
2023/02/07 09:34:40;;;;;;;39.17;20.90;;;;;;;;;;4751779;30;20070;-58
2023/02/07 09:37:06;;;;;;;41.38;20.75;;;;;;;;;;4754298;30;20044;-59
2023/02/07 09:39:35;;;;;;;36.17;18.83;;;;;;;;;;4751626;30;20039;-59
2023/02/07 09:42:07;;;;;;;37.67;19.20;;;;;;;;;;4758280;30;20044;-59
2023/02/07 09:44:33;;;;;;;;;;;;;;;;;;4757948;30;20096;-59
2023/02/07 09:46:59;;;;;;;38.00;19.52;;;;;;;;;;4759557;30;19939;-61
2023/02/07 09:49:40;;;;;;;39.95;19.15;;;;;;;;;;4760491;30;20038;-58
2023/02/07 09:52:11;;;;;;;36.97;19.55;;;;;;;;;;4759107;30;20048;-70
2023/02/07 09:54:39;;;;;;;41.13;19.75;;;;;;;;;;4752071;30;20028;-70
2023/02/07 09:57:13;;;;;;;34.85;18.00;;;;;;;;;;4751674;30;20375;-58
2023/02/07 09:59:42;;;;;;;41.38;19.08;;;;;;;;;;4751979;30;20032;-59
2023/02/07 10:02:16;;;;;;;37.85;18.05;;;;;;;;;;4751563;30;20098;-72
2023/02/07 10:04:44;;;;;;;36.65;19.00;;;;;;;;;;4751953;30;20044;-58
2023/02/07 10:07:12;;;;;;;39.25;18.50;;;;;;;;;;4751755;30;20032;-58
2023/02/07 10:09:40;;;;;;;38.70;19.25;;;;;;;;;;4752156;30;20036;-68
2023/02/07 10:12:10;;;;;;;34.55;17.50;;;;;;;;;;4751511;30;20477;-65
2023/02/07 10:14:38;;;;;;;37.50;19.08;;;;;;;;;;4751514;30;20040;-60
2023/02/07 10:17:07;;;;;;;38.10;19.30;;;;;;;;;;4751388;30;20037;-59
2023/02/07 10:19:41;;;;;;;40.78;18.90;;;;;;;;;;4751420;30;20028;-60
2023/02/07 10:22:13;;;;;;;36.67;18.73;;;;;;;;;;4751343;30;20119;-58
2023/02/07 10:24:39;;;;;;;38.05;18.55;;;;;;;;;;4751538;30;20051;-59
2023/02/07 10:27:09;;;;;;;43.95;20.63;;;;;;;;;;4751385;30;20468;-59
2023/02/07 10:29:47;;;;;;;38.78;20.10;;;;;;;;;;4751522;30;20036;-63
2023/02/07 10:32:15;;;;;;;40.88;20.38;;;;;;;;;;4750868;30;20124;-57
2023/02/07 10:34:44;;;;;;;46.83;24.58;;;;;;;;;;4751218;30;20032;-58
2023/02/07 10:37:20;;;;;;;41.10;21.90;;;;;;;;;;4751159;30;20032;-59
2023/02/07 10:40:07;;;;;;;43.42;20.27;;;;;;;;;;4751311;30;20036;-61
2023/02/07 10:42:33;;;;;;;38.70;19.48;;;;;;;;;;4750690;30;20056;-59
2023/02/07 10:44:59;;;;;;;42.70;21.80;;;;;;;;;;4751063;30;20079;-59
2023/02/07 10:47:29;;;;;;;44.85;22.05;;;;;;;;;;4751504;30;20052;-59
2023/02/07 10:49:55;;;;;;;40.97;20.42;;;;;;;;;;4750839;30;20032;-60
2023/02/07 10:52:48;;;;;;;38.72;19.50;;;;;;;;;;4750301;30;20509;-61
2023/02/07 10:55:14;;;;;;;;;;;;;;;;;;4764634;30;20051;-59
2023/02/07 10:57:40;;;;;;;30.75;15.05;;;;;;;;;;4768613;30;19920;-58
2023/02/07 11:00:22;;;;;;;32.42;16.73;;;;;;;;;;4768563;30;20048;-63
2023/02/07 11:02:54;;;;;;;29.67;15.73;;;;;;;;;;4768763;30;20040;-59
2023/02/07 11:05:23;;;;;;;32.30;15.93;;;;;;;;;;4768523;30;20485;-59
2023/02/07 11:07:57;;;;;;;29.73;15.13;;;;;;;;;;4768607;30;20038;-59
2023/02/07 11:10:24;;;;;;;35.03;16.55;;;;;;;;;;4768358;30;20126;-64
2023/02/07 11:12:54;;;;;;;31.30;16.08;;;;;;;;;;4768054;30;20058;-70
2023/02/07 11:15:22;;;;;;;29.35;15.65;;;;;;;;;;4768900;30;20485;-60
2023/02/07 11:17:48;;;;;;;31.20;15.35;;;;;;;;;;4760348;30;20086;-59
2023/02/07 11:20:20;;;;;;;32.55;16.33;;;;;;;;;;4750010;30;20545;-67
2023/02/07 11:22:46;;;;;;;37.03;18.10;;;;;;;;;;4750414;30;20075;-70
2023/02/07 11:25:12;;;;;;;33.25;15.70;;;;;;;;;;4750384;30;20044;-65
2023/02/07 11:27:41;;;;;;;42.08;19.92;;;;;;;;;;4750065;30;20453;-61
2023/02/07 11:30:19;;;;;;;44.38;22.30;;;;;;;;;;4750301;30;20515;-61
2023/02/07 11:32:54;;;;;;;30.65;15.30;;;;;;;;;;4750707;30;20040;-64
2023/02/07 11:35:20;;;;;;;28.90;16.05;;;;;;;;;;4750132;30;20039;-65
2023/02/07 11:37:48;;;;;;;30.75;15.63;;;;;;;;;;4750063;30;20485;-60
2023/02/07 11:40:26;;;;;;;32.30;15.35;;;;;;;;;;4750334;30;20497;-61
2023/02/07 11:43:04;;;;;;;34.05;17.33;;;;;;;;;;4757110;30;20099;-71
2023/02/07 11:45:33;;;;;;;33.80;16.38;;;;;;;;;;4767843;30;20052;-63
2023/02/07 11:47:59;;;;;;;30.48;15.07;;;;;;;;;;4767945;30;20023;-70
2023/02/07 11:50:28;;;;;;;33.83;16.17;;;;;;;;;;4768122;30;20070;-71
2023/02/07 11:52:56;;;;;;;25.33;13.32;;;;;;;;;;4767770;30;20042;-60
2023/02/07 11:55:25;;;;;;;28.52;14.85;;;;;;;;;;4768002;30;20683;-61
2023/02/07 11:57:54;;;;;;;25.73;13.57;;;;;;;;;;4767795;30;20032;-60
2023/02/07 12:00:23;;;;;;;31.27;15.95;;;;;;;;;;4768004;30;20040;-60
2023/02/07 12:02:50;;;;;;;29.40;15.18;;;;;;;;;;4768749;30;20098;-60
2023/02/07 12:05:21;;;;;;;33.35;16.90;;;;;;;;;;4770638;30;20040;-65
2023/02/07 12:07:51;;;;;;;33.72;16.27;;;;;;;;;;4771742;30;20040;-61
2023/02/07 12:10:22;;;;;;;27.52;14.77;;;;;;;;;;4771171;30;20366;-61
2023/02/07 12:12:55;;;;;;;30.17;14.27;;;;;;;;;;4771330;30;20123;-60
2023/02/07 12:15:32;;;;;;;22.67;11.43;;;;;;;;;;4771493;30;20067;-72
2023/02/07 12:18:01;;;;;;;25.48;13.52;;;;;;;;;;4771208;30;20042;-61
2023/02/07 12:20:34;;;;;;;36.70;16.95;;;;;;;;;;4770664;30;20036;-60
2023/02/07 12:23:00;;;;;;;;;;;;;;;;;;4771550;30;20113;-61
2023/02/07 12:25:28;;;;;;;29.60;14.25;;;;;;;;;;4771186;30;20344;-70
2023/02/07 12:27:58;;;;;;;28.00;14.27;;;;;;;;;;4771347;30;20067;-73
2023/02/07 12:30:42;;;;;;;29.40;14.15;;;;;;;;;;4771247;30;20046;-60
2023/02/07 12:33:17;;;;;;;28.58;15.07;;;;;;;;;;4771139;30;20035;-69
2023/02/07 12:36:09;;;;;;;29.35;15.13;;;;;;;;;;4771238;30;20036;-61
2023/02/07 12:38:43;;;;;;;26.63;13.27;;;;;;;;;;4732775;30;20098;-63
2023/02/07 12:41:14;;;;;;;25.83;13.70;;;;;;;;;;4733254;30;20041;-61
2023/02/07 12:43:48;;;;;;;27.88;13.60;;;;;;;;;;4732598;30;20824;-77
2023/02/07 12:46:17;;;;;;;28.42;14.18;;;;;;;;;;4733519;30;20125;-63
2023/02/07 12:49:09;;;;;;;29.40;14.75;;;;;;;;;;4732881;30;20040;-59
2023/02/07 12:51:44;;;;;;;20.55;10.93;;;;;;;;;;4732767;30;20056;-60
2023/02/07 12:54:13;;;;;;;25.17;14.20;;;;;;;;;;4733380;30;20107;-59
2023/02/07 12:56:42;;;;;;;26.25;13.88;;;;;;;;;;4733562;30;20072;-60
2023/02/07 12:59:18;;;;;;;29.60;14.68;;;;;;;;;;4733025;30;20512;-74
2023/02/07 13:01:44;;;;;;;32.67;15.25;;;;;;;;;;4733204;30;20041;-62
2023/02/07 13:04:10;;;;;;;31.38;15.27;;;;;;;;;;4733190;30;20033;-60
2023/02/07 13:06:45;;;;;;;32.92;15.02;;;;;;;;;;4733361;30;20052;-60
2023/02/07 13:09:23;;;;;;;26.73;13.48;;;;;;;;;;4733145;30;20055;-72
2023/02/07 13:12:06;;;;;;;27.75;14.40;;;;;;;;;;4733135;30;20044;-76
2023/02/07 13:14:32;;;;;;;28.83;14.80;;;;;;;;;;4735102;30;20044;-60
2023/02/07 13:17:16;;;;;;;27.67;14.25;;;;;;;;;;4770003;30;20036;-77
2023/02/07 13:19:55;;;;;;;32.20;14.32;;;;;;;;;;4769598;30;20039;-66
2023/02/07 13:22:24;;;;;;;24.77;13.70;;;;;;;;;;4770342;30;20070;-60
2023/02/07 13:24:51;;;;;;;24.40;12.60;;;;;;;;;;4784332;30;20374;-60
2023/02/07 13:27:20;;;;;;;31.85;15.60;;;;;;;;;;4788091;30;20038;-61
2023/02/07 13:29:47;;;;;;;29.80;15.18;;;;;;;;;;4788053;30;20084;-70
2023/02/07 13:32:20;;;;;;;23.55;12.20;;;;;;;;;;4787805;30;20758;-60
2023/02/07 13:34:51;;;;;;;22.85;9.20;;;;;;;;;;4788189;30;20116;-60
2023/02/07 13:37:18;;;;;;;25.23;13.02;;;;;;;;;;4787729;30;20515;-60
2023/02/07 13:40:03;;;;;;;28.58;15.43;;;;;;;;;;4787949;30;20196;-79
2023/02/07 13:42:44;;;;;;;24.85;13.20;;;;;;;;;;4787427;29;20515;-62
2023/02/07 13:45:16;;;;;;;25.10;13.75;;;;;;;;;;4787617;30;20043;-74
2023/02/07 13:47:42;;;;;;;25.58;12.52;;;;;;;;;;4771411;30;20488;-73
2023/02/07 13:50:17;;;;;;;27.50;13.00;;;;;;;;;;4764220;30;20512;-73
2023/02/07 13:52:47;;;;;;;26.27;13.27;;;;;;;;;;4758597;30;20040;-63
2023/02/07 13:55:27;;;;;;;26.67;12.65;;;;;;;;;;4756502;30;20043;-71
2023/02/07 14:00:57;;;;;;;32.33;15.70;;;;;;;;;;4768047;30;20065;-73
2023/02/07 14:03:28;;;;;;;27.65;14.43;;;;;;;;;;4762865;30;20042;-60
2023/02/07 14:06:12;;;;;;;19.13;9.80;;;;;;;;;;4764039;30;20040;-72
2023/02/07 14:08:39;;;;;;;26.67;13.40;;;;;;;;;;4769372;30;20264;-60
2023/02/07 14:11:21;;;;;;;28.98;11.48;;;;;;;;;;4753462;30;20032;-65
2023/02/07 14:13:47;;;;;;;26.27;12.32;;;;;;;;;;4751436;30;20437;-61
2023/02/07 14:16:33;;;;;;;28.23;14.77;;;;;;;;;;4751756;30;20127;-60
2023/02/07 14:18:59;;;;;;;28.02;13.07;;;;;;;;;;4750667;30;20164;-68
2023/02/07 14:21:29;;;;;;;26.55;13.32;;;;;;;;;;4751579;30;20046;-69
2023/02/07 14:23:58;;;;;;;26.35;12.52;;;;;;;;;;4751644;30;20507;-63
2023/02/07 14:26:40;;;;;;;26.63;13.18;;;;;;;;;;4751571;30;20076;-60
2023/02/07 14:29:26;;;;;;;27.35;13.65;;;;;;;;;;4751131;30;20591;-60
2023/02/07 14:31:55;;;;;;;35.35;15.85;;;;;;;;;;4751422;30;20257;-60
2023/02/07 14:34:23;;;;;;;28.92;14.23;;;;;;;;;;4751207;30;20035;-60
2023/02/07 14:36:49;;;;;;;49.30;22.85;;;;;;;;;;4751351;30;20020;-59
2023/02/07 14:39:18;;;;;;;27.95;14.80;;;;;;;;;;4751339;30;20048;-60
2023/02/07 14:41:45;;;;;;;28.65;13.82;;;;;;;;;;4750694;30;20382;-61
2023/02/07 14:44:31;;;;;;;25.75;13.55;;;;;;;;;;4750672;30;20052;-60
2023/02/07 14:46:58;;;;;;;30.95;14.55;;;;;;;;;;4750941;30;20048;-60
2023/02/07 14:49:24;;;;;;;25.08;13.85;;;;;;;;;;4750842;30;20025;-70
2023/02/07 14:51:54;;;;;;;25.35;12.90;;;;;;;;;;4750497;30;20119;-72
2023/02/07 14:54:38;;;;;;;27.38;12.02;;;;;;;;;;4751168;30;20500;-74
2023/02/07 14:57:04;;;;;;;27.38;13.27;;;;;;;;;;4750898;30;20135;-60
2023/02/07 14:59:33;;;;;;;27.60;12.70;;;;;;;;;;4750950;30;20088;-61
2023/02/07 15:02:19;;;;;;;28.65;13.45;;;;;;;;;;4750976;30;20119;-61
2023/02/07 15:04:45;;;;;;;28.08;13.13;;;;;;;;;;4750798;30;20404;-67
2023/02/07 15:07:12;;;;;;;27.30;12.98;;;;;;;;;;4750478;30;20404;-75
2023/02/07 15:09:38;;;;;;;28.35;13.02;;;;;;;;;;4751046;30;20034;-72
2023/02/07 15:12:06;;;;;;;26.88;13.60;;;;;;;;;;4750593;30;20024;-60
2023/02/07 15:14:34;;;;;;;27.25;12.43;;;;;;;;;;4749730;30;20511;-67
2023/02/07 15:17:00;;;;;;;25.63;12.43;;;;;;;;;;4750794;30;20063;-60
2023/02/07 15:19:26;;;;;;;29.95;12.43;;;;;;;;;;4750361;30;20371;-73
2023/02/07 15:21:52;;;;;;;25.77;12.32;;;;;;;;;;4750478;30;20036;-65
2023/02/07 15:24:48;;;;;;;39.85;16.73;;;;;;;;;;4750696;30;20034;-60
2023/02/07 15:27:21;;;;;;;30.98;13.20;;;;;;;;;;4696002;30;20105;-62
2023/02/07 15:29:58;;;;;;;32.17;14.05;;;;;;;;;;4695567;30;20045;-61
2023/02/07 15:32:26;;;;;;;27.67;13.80;;;;;;;;;;4687318;30;20072;-61
2023/02/07 15:34:52;;;;;;;24.48;12.10;;;;;;;;;;4681368;30;20046;-61
2023/02/07 15:37:23;;;;;;;28.20;13.35;;;;;;;;;;4678410;30;20056;-62
2023/02/07 15:39:51;;;;;;;24.08;11.75;;;;;;;;;;4678356;30;20248;-62
2023/02/07 15:42:19;;;;;;;36.55;15.63;;;;;;;;;;4680904;30;20042;-61
2023/02/07 15:44:48;;;;;;;27.65;13.18;;;;;;;;;;4689875;30;20230;-61
2023/02/07 15:47:30;;;;;;;32.10;13.35;;;;;;;;;;4693056;30;20184;-64
2023/02/07 15:50:00;;;;;;;30.73;13.23;;;;;;;;;;4687743;30;20038;-60
2023/02/07 15:52:38;;;;;;;27.02;12.20;;;;;;;;;;4687302;30;20046;-62
2023/02/07 15:55:11;;;;;;;23.45;12.65;;;;;;;;;;4686316;30;20173;-62
2023/02/07 15:57:41;;;;;;;25.45;12.05;;;;;;;;;;4688830;30;20161;-63
2023/02/07 16:00:08;;;;;;;23.10;10.60;;;;;;;;;;4685963;30;20507;-62
2023/02/07 16:02:36;;;;;;;21.23;9.52;;;;;;;;;;4684974;30;20615;-59
2023/02/07 16:05:08;;;;;;;12.60;5.65;;;;;;;;;;4766770;30;20035;-60
2023/02/07 16:07:34;;;;;;;;;;;;;;;;;;4771108;30;20115;-60
2023/02/07 16:10:14;;;;;;;27.13;12.63;;;;;;;;;;4774928;30;20005;-66
2023/02/07 16:12:48;;;;;;;30.30;13.85;;;;;;;;;;4769727;30;20114;-60
2023/02/07 16:15:22;;;;;;;28.30;13.52;;;;;;;;;;4763791;30;20473;-60
2023/02/07 16:17:48;;;;;;;29.77;13.68;;;;;;;;;;4776743;30;20035;-63
2023/02/07 16:20:14;;;;;;;30.92;14.43;;;;;;;;;;4767748;30;20038;-60
2023/02/07 16:22:42;;;;;;;14.50;6.72;;;;;;;;;;4768587;30;20035;-60
2023/02/07 16:25:12;;;;;;;31.48;15.07;;;;;;;;;;4782146;30;20039;-59
2023/02/07 16:27:39;;;;;;;33.53;14.05;;;;;;;;;;4785158;30;20032;-59
2023/02/07 16:30:06;;;;;;;31.00;14.98;;;;;;;;;;4773557;29;20100;-59
2023/02/07 16:32:32;;;;;;;38.25;16.58;;;;;;;;;;4761805;29;20133;-58
2023/02/07 16:34:59;;;;;;;45.97;22.35;;;;;;;;;;4749930;30;20032;-62
2023/02/07 16:37:26;;;;;;;32.53;14.18;;;;;;;;;;4755526;30;20134;-60
2023/02/07 16:39:52;;;;;;;46.00;18.77;;;;;;;;;;4772400;30;20072;-60
2023/02/07 16:42:18;;;;;;;43.53;18.17;;;;;;;;;;4766265;30;20055;-60
2023/02/07 16:44:45;;;;;;;36.17;16.90;;;;;;;;;;4749310;30;20104;-60
2023/02/07 16:47:14;;;;;;;49.53;19.35;;;;;;;;;;4749889;30;20028;-61
2023/02/07 16:49:42;;;;;;;38.08;18.58;;;;;;;;;;4749782;30;20036;-58
2023/02/07 16:52:08;;;;;;;38.17;16.70;;;;;;;;;;4753294;30;20040;-59
2023/02/07 16:54:34;;;;;;;28.95;12.48;;;;;;;;;;4753356;30;20048;-68
2023/02/07 16:57:04;;;;;;;45.92;19.77;;;;;;;;;;4752625;30;20045;-59
2023/02/07 16:59:30;;;;;;;44.88;18.67;;;;;;;;;;4752181;30;20066;-59
2023/02/07 17:01:56;;;;;;;43.33;17.88;;;;;;;;;;4752428;30;20036;-59
2023/02/07 17:04:22;;;;;;;38.53;16.80;;;;;;;;;;4752374;30;20402;-60
2023/02/07 17:06:48;;;;;;;36.53;15.88;;;;;;;;;;4752843;30;20040;-59
2023/02/07 17:09:15;;;;;;;37.97;17.35;;;;;;;;;;4752688;30;20111;-60
2023/02/07 17:11:42;;;;;;;38.90;17.10;;;;;;;;;;4752766;30;20412;-72
2023/02/07 17:14:08;;;;;;;35.78;17.10;;;;;;;;;;4752590;30;20040;-59
2023/02/07 17:16:35;;;;;;;36.67;16.10;;;;;;;;;;4752091;30;20036;-58
2023/02/07 17:19:01;;;;;;;34.15;15.98;;;;;;;;;;4752458;30;20366;-60
2023/02/07 17:21:27;;;;;;;34.35;15.77;;;;;;;;;;4752380;30;20039;-71
2023/02/07 17:23:54;;;;;;;37.90;17.70;;;;;;;;;;4752445;30;20044;-58
2023/02/07 17:26:20;;;;;;;39.88;16.83;;;;;;;;;;4752157;30;20127;-60
2023/02/07 17:28:46;;;;;;;40.10;17.33;;;;;;;;;;4752025;30;20036;-61
2023/02/07 17:31:12;;;;;;;43.90;16.90;;;;;;;;;;4751654;30;20071;-67
2023/02/07 17:33:39;;;;;;;40.78;18.55;;;;;;;;;;4757579;30;20103;-58
2023/02/07 17:36:05;;;;;;;38.33;17.40;;;;;;;;;;4769777;30;20810;-61
2023/02/07 17:38:31;;;;;;;41.08;18.23;;;;;;;;;;4769804;30;20098;-58
2023/02/07 17:40:57;;;;;;;39.42;17.55;;;;;;;;;;4770165;30;20078;-68
2023/02/07 17:43:23;;;;;;;38.25;17.45;;;;;;;;;;4769413;30;20127;-62
2023/02/07 17:45:49;;;;;;;36.10;17.35;;;;;;;;;;4749143;30;20056;-61
2023/02/07 17:48:15;;;;;;;37.95;17.70;;;;;;;;;;4734242;30;20033;-68
2023/02/07 17:50:41;;;;;;;37.72;15.05;;;;;;;;;;4734281;30;20120;-61
2023/02/07 17:53:08;;;;;;;36.25;16.55;;;;;;;;;;4751559;30;20032;-67
2023/02/07 17:55:35;;;;;;;32.88;14.82;;;;;;;;;;4756454;30;20031;-61
2023/02/07 17:58:03;;;;;;;34.53;15.95;;;;;;;;;;4751769;30;20035;-61
2023/02/07 18:00:30;;;;;;;34.25;15.25;;;;;;;;;;4760778;30;20027;-60
2023/02/07 18:02:57;;;;;;;35.00;15.45;;;;;;;;;;4769557;30;20064;-61
2023/02/07 18:05:23;;;;;;;33.53;15.75;;;;;;;;;;4769802;30;20044;-59
2023/02/07 18:07:50;;;;;;;35.50;16.90;;;;;;;;;;4739076;30;20040;-60
2023/02/07 18:10:21;;;;;;;33.08;15.88;;;;;;;;;;4734254;30;20055;-60
2023/02/07 18:12:47;;;;;;;34.97;16.40;;;;;;;;;;4733938;30;20037;-60
2023/02/07 18:15:14;;;;;;;36.47;15.20;;;;;;;;;;4733806;30;20376;-60
2023/02/07 18:17:45;;;;;;;36.20;14.82;;;;;;;;;;4733670;30;20098;-60
2023/02/07 18:20:17;;;;;;;36.17;16.17;;;;;;;;;;4733808;30;20029;-63
2023/02/07 18:22:43;;;;;;;38.55;17.65;;;;;;;;;;4733195;30;20076;-58
2023/02/07 18:25:10;;;;;;;37.42;17.63;;;;;;;;;;4733706;30;20040;-59
2023/02/07 18:27:36;;;;;;;37.20;16.85;;;;;;;;;;4733517;30;20043;-59
2023/02/07 18:30:03;;;;;;;33.90;15.52;;;;;;;;;;4733281;30;20041;-67
2023/02/07 18:32:29;;;;;;;32.92;15.68;;;;;;;;;;4733406;30;20037;-60
2023/02/07 18:34:55;;;;;;;34.92;16.42;;;;;;;;;;4733551;30;20430;-61
2023/02/07 18:37:21;;;;;;;30.95;14.75;;;;;;;;;;4733034;30;20151;-62
2023/02/07 18:39:48;;;;;;;38.75;16.45;;;;;;;;;;4733611;30;20028;-64
2023/02/07 18:42:16;;;;;;;31.85;15.48;;;;;;;;;;4733098;30;20135;-63
2023/02/07 18:44:42;;;;;;;38.30;18.38;;;;;;;;;;4770271;30;20058;-62
2023/02/07 18:47:08;;;;;;;28.63;14.75;;;;;;;;;;4786404;30;20058;-65
2023/02/07 18:49:35;;;;;;;32.97;15.20;;;;;;;;;;4786493;30;20492;-62
2023/02/07 18:52:01;;;;;;;39.97;16.83;;;;;;;;;;4786400;30;20511;-62
2023/02/07 18:54:27;;;;;;;37.80;16.65;;;;;;;;;;4786639;30;20039;-62
2023/02/07 18:56:53;;;;;;;32.40;14.85;;;;;;;;;;4786678;30;20031;-63
2023/02/07 18:59:20;;;;;;;34.67;13.77;;;;;;;;;;4786659;30;20035;-62
2023/02/07 19:01:47;;;;;;;30.15;14.25;;;;;;;;;;4786208;30;20040;-62
2023/02/07 19:04:14;;;;;;;39.78;15.73;;;;;;;;;;4786361;30;20057;-61
2023/02/07 19:06:40;;;;;;;36.20;16.23;;;;;;;;;;4786023;30;20098;-62
2023/02/07 19:09:07;;;;;;;38.60;16.98;;;;;;;;;;4786586;30;20500;-68
2023/02/07 19:11:34;;;;;;;35.97;15.98;;;;;;;;;;4786305;30;20043;-62
2023/02/07 19:14:00;;;;;;;40.38;17.98;;;;;;;;;;4785555;30;20050;-62
2023/02/07 19:16:26;;;;;;;40.38;17.38;;;;;;;;;;4786189;30;20042;-62
2023/02/07 19:18:52;;;;;;;37.05;16.90;;;;;;;;;;4786510;30;20421;-62
2023/02/07 19:21:25;;;;;;;38.72;17.65;;;;;;;;;;4786271;30;20054;-62
2023/02/07 19:23:51;;;;;;;37.35;16.92;;;;;;;;;;4786085;30;20035;-70
2023/02/07 19:26:18;;;;;;;40.20;18.73;;;;;;;;;;4785722;30;20047;-63
2023/02/07 19:28:44;;;;;;;43.00;19.90;;;;;;;;;;4786276;30;20071;-61
2023/02/07 19:31:16;;;;;;;46.88;20.92;;;;;;;;;;4785978;30;20538;-62
2023/02/07 19:33:42;;;;;;;51.45;22.67;;;;;;;;;;4785815;30;20027;-84
2023/02/07 19:36:09;;;;;;;61.95;28.08;;;;;;;;;;4785939;30;20031;-71
2023/02/07 19:38:36;;;;;;;76.45;32.72;;;;;;;;;;4785755;30;20049;-60
2023/02/07 19:41:02;;;;;;;56.22;26.65;;;;;;;;;;4786039;30;20437;-71
2023/02/07 19:43:29;;;;;;;52.78;25.02;;;;;;;;;;4766194;30;20056;-65
2023/02/07 19:45:55;;;;;;;49.95;23.35;;;;;;;;;;4767638;30;20048;-62
2023/02/07 19:48:21;;;;;;;50.60;23.42;;;;;;;;;;4767957;30;20036;-61
2023/02/07 19:50:48;;;;;;;52.13;23.60;;;;;;;;;;4767799;30;20055;-62
2023/02/07 19:53:15;;;;;;;51.03;23.67;;;;;;;;;;4767841;30;20397;-62
2023/02/07 19:55:41;;;;;;;57.65;23.70;;;;;;;;;;4766671;30;20035;-61
2023/02/07 19:58:07;;;;;;;50.67;23.98;;;;;;;;;;4767598;30;20038;-78
2023/02/07 20:00:33;;;;;;;50.65;23.65;;;;;;;;;;4768038;30;20039;-63
2023/02/07 20:02:59;;;;;;;50.60;23.98;;;;;;;;;;4767615;30;20031;-62
2023/02/07 20:05:26;;;;;;;55.22;24.92;;;;;;;;;;4767831;30;20078;-63
2023/02/07 20:07:52;;;;;;;51.97;24.45;;;;;;;;;;4767853;30;20388;-62
2023/02/07 20:10:18;;;;;;;52.45;25.17;;;;;;;;;;4768041;30;20497;-74
2023/02/07 20:12:44;;;;;;;53.45;24.08;;;;;;;;;;4768120;30;20044;-71
2023/02/07 20:15:10;;;;;;;51.65;25.45;;;;;;;;;;4767807;30;20060;-63
2023/02/07 20:17:37;;;;;;;56.47;25.23;;;;;;;;;;4767631;30;20464;-63
2023/02/07 20:20:04;;;;;;;54.60;25.13;;;;;;;;;;4766851;30;20554;-68
2023/02/07 20:22:30;;;;;;;54.72;24.95;;;;;;;;;;4767783;30;20028;-66
2023/02/07 20:24:56;;;;;;;54.63;24.10;;;;;;;;;;4770071;30;20139;-63
2023/02/07 20:27:22;;;;;;;49.70;23.38;;;;;;;;;;4771451;30;20381;-65
2023/02/07 20:29:51;;;;;;;48.40;23.38;;;;;;;;;;4771252;30;20028;-63
2023/02/07 20:32:18;;;;;;;50.33;22.48;;;;;;;;;;4771027;30;20415;-62
2023/02/07 20:34:44;;;;;;;54.42;23.75;;;;;;;;;;4771297;30;20060;-62
2023/02/07 20:37:10;;;;;;;48.10;23.38;;;;;;;;;;4770987;30;20027;-62
2023/02/07 20:39:37;;;;;;;55.05;26.73;;;;;;;;;;4771366;30;20189;-62
2023/02/07 20:42:03;;;;;;;50.15;22.92;;;;;;;;;;4771127;30;20032;-62
2023/02/07 20:44:29;;;;;;;50.90;23.58;;;;;;;;;;4770210;30;20147;-63
2023/02/07 20:46:56;;;;;;;47.70;22.92;;;;;;;;;;4770915;30;20416;-68
2023/02/07 20:49:25;;;;;;;50.45;22.95;;;;;;;;;;4770392;30;20028;-67
2023/02/07 20:51:51;;;;;;;52.78;24.30;;;;;;;;;;4770696;30;20028;-70
2023/02/07 20:54:18;;;;;;;46.22;22.17;;;;;;;;;;4770836;30;20200;-62
2023/02/07 20:56:44;;;;;;;56.75;23.77;;;;;;;;;;4770861;30;20073;-65
2023/02/07 20:59:34;;;;;;;47.50;23.00;;;;;;;;;;4770445;30;20066;-71
2023/02/07 21:02:00;;;;;;;49.40;22.63;;;;;;;;;;4770552;30;20024;-62
2023/02/07 21:04:27;;;;;;;53.10;24.17;;;;;;;;;;4770428;30;20039;-62
2023/02/07 21:06:53;;;;;;;47.03;22.63;;;;;;;;;;4770549;30;20108;-62
2023/02/07 21:09:22;;;;;;;51.20;23.20;;;;;;;;;;4770463;30;20024;-62
2023/02/07 21:11:49;;;;;;;51.53;23.17;;;;;;;;;;4770240;30;20504;-61